メインページ
METAR-TAF:

METAR-TAF

空港 :

ソフィア, ブルガリア

ソフィア空港

緯度: 42-39N, 経度: 023-23E, 海抜: 586m

現時点の気象観測

当レポートは21分前の11:30(UTC)に作成
の風 6kt、東/北東から東/南東の間で変化する
気温 17°C
湿度 77%
気圧 1017 hPa
視程10km以上
高度4900ftの千切れ雲あり
高度6000ftの曇り

METAR: LBSF 241130Z 09006KT 060V120 9999 BKN049 OVC060 17/13 Q1017 NOSIG

時間: 14:51 (11:51 UTC)

予報

当レポートは51分前の11:00(UTC)に作成
予報は24日の 12時(UTC)から 25日の 12時(UTC)まで有効
の風 10kt
視程10km以上
高度3000ftの雲は散在している
高度5000ftの千切れ雲あり
24日の 12時(UTC)から 24日の 19時(UTC)まで一時的に
視程: 5000m
高度3000ftの雲は散在している, 積乱雲.
高度4000ftの千切れ雲あり
にわか雨
25日の 00時(UTC)から 25日の 02時(UTC)まで徐々に
西の風 8kt
確率 40% :
25日の 01時(UTC)から 25日の 05時(UTC)まで一時的に
視程: 3000m
高度1300ftの雲は散在している
25日の 08時(UTC)から 25日の 12時(UTC)まで一時的に
視程: 5000m
高度3000ftの雲は散在している, 積乱雲.
高度4000ftの千切れ雲あり
にわか雨

TAF: LBSF 241100Z 2412/2512 10010KT 9999 SCT030 BKN050 TEMPO 2412/2419 5000 SHRA SCT030CB BKN040 BECMG 2500/2502 28008KT PROB40 TEMPO 2501/2505 3000 BR SCT013 TEMPO 2508/2512 5000 SHRA SCT030CB BKN040

4,000以上の空港の気象観測と天気予報(METAR報とTAF報)

利用可能な観測所は地図上に黄色い丸と赤い丸で示す。

丸の上にカーソルを重ねると観測所名を参照できる。

次にクリックすると気象観測と天気予報を参照できる。

マップの切り替え:黒色「×」印の緑ボタンをクリックして拡大、「-」印の緑ボタンをクリックして縮小、緑色の三角印をクリックして隣りの地図に切り替え


METAR-TAF: